Tuxtla Gutiérrez, México

7:29 PM CDT en Octubre 22, 2017 (GMT -0500)
Francisco Sarabia | | Change Station

Alt 1732 ft 16.75 °N, 93.12 °W | Updated 49 minutes ago

Nublado
Nublado
81 ° F
Sensación térmica 85 ° F
N
17
Viento Variable Viento desde NO

Hoy
Alta -- | Baja -- ° F
--% Posibilidad de precipitaciones
Ayer
Alta -- | Baja -- ° F
Precip. -- pul
Presión 29.80 pul
Visibilidad 8.0 Millas
Nubes Nubes dispersas 2000 ft
Muy nublado 8000 ft
Muy nublado 30000 ft
Índice de calor 85 ° F
Punto de rocío 72 ° F
Humedad 74%
Precipitaciones 0.00 pul
Espesor de la nieve No disponible.
7:07 AM 6:47 PM
Creciente, 10% visible
METAR MMTG 222340Z 31015KT 8SM SCT020 BKN080 BKN300 27/22 A2989 RMK SLP089 52013 909 8/463 HZY ISOLD CB DSNT PCPN SE
Presión 29.80 pul
Visibilidad 8.0 Millas
Nubes Nubes dispersas 2000 ft
Muy nublado 8000 ft
Muy nublado 30000 ft
Índice de calor 85 ° F
Punto de rocío 72 ° F
Humedad 74%
Precipitaciones 0.00 pul
Espesor de la nieve No disponible.
7:07 AM 6:47 PM
Creciente, 10% visible
METAR MMTG 222340Z 31015KT 8SM SCT020 BKN080 BKN300 27/22 A2989 RMK SLP089 52013 909 8/463 HZY ISOLD CB DSNT PCPN SE

Get Severe Weather Alerts

Thanks for signing up!

Be on the lookout for a verification email in your inbox.

You'll start receiving the daily forecast at 6 AM.

×

10-Day Weather Forecast

No radar image for this location.
×

Almanac

Astronomía

Oct. 22, 2017 Salida Puesta
Hora real
Crepúsculo civil
Crepúsculo náutico
Crepúsculo astronómico
Luna
Horas de luz
Horas de luz
Tomorrow will be .
, % of the Moon is Illuminated

Extremos de hoy

Máximos del país Bajas del país

Community

WunderPhotos

Category 6

Welcome to Category 6. This is the collective home for Weather Underground's featured writeups by Dr. Jeff Masters (right), Bob Henson (left), Chris Burt, and other regular contributors.

Nearby

Calidad del aire

  Calidad del aire Índice AQ Contaminante
Not available.

Grosos de nieve

Estación Profundido Altura

Actividad de terremotos

Ciudad Distance Mag. Tiempo y dato
Magnitud mínima muestra es 2,5.

Temperaturas de aguas costeras

Lugar Temperatura

Stations

Estaciones meteorológicas cercanas

Ubicación de la estación Temp. Vientos helados Punto de rocío Humedad Viento Precip. Alt Actualizado Tipo